createdAt,value
2019-02-22T00:00:50.181Z,96724.16
2019-02-22T00:01:55.436Z,96725.89
2019-02-22T00:02:58.927Z,96723.39
2019-02-22T00:04:02.516Z,96721.55
2019-02-22T00:05:06.279Z,96725.71
2019-02-22T00:06:09.778Z,96726.13
2019-02-22T00:07:13.287Z,96730.30
2019-02-22T00:08:16.719Z,96723.94
2019-02-22T00:09:20.148Z,96726.25
2019-02-22T00:10:23.751Z,96723.52
2019-02-22T00:11:27.180Z,96729.70
2019-02-22T00:12:30.746Z,96723.55
2019-02-22T00:13:34.204Z,96727.07
2019-02-22T00:14:37.663Z,96724.02
2019-02-22T00:15:41.132Z,96722.41
2019-02-22T00:16:44.656Z,96727.85
2019-02-22T00:17:48.221Z,96719.66
2019-02-22T00:18:51.655Z,96733.09
2019-02-22T00:19:55.086Z,96721.40
2019-02-22T00:20:58.541Z,96721.40
2019-02-22T00:22:02.013Z,96720.55
2019-02-22T00:23:05.506Z,96719.56
2019-02-22T00:24:08.939Z,96723.37
2019-02-22T00:25:12.441Z,96724.91
2019-02-22T00:26:15.891Z,96732.02
2019-02-22T00:27:19.387Z,96724.98
2019-02-22T00:28:22.827Z,96724.80
2019-02-22T00:29:26.338Z,96729.55
2019-02-22T00:30:29.849Z,96725.62
2019-02-22T00:31:33.380Z,96727.77
2019-02-22T00:32:36.903Z,96727.97
2019-02-22T00:33:40.343Z,96734.76
2019-02-22T00:34:43.855Z,96734.52
2019-02-22T00:35:47.409Z,96727.96
2019-02-22T00:36:50.836Z,96728.80
2019-02-22T00:37:54.277Z,96727.39
2019-02-22T00:38:57.711Z,96727.39
2019-02-22T00:40:01.153Z,96732.22
2019-02-22T00:41:04.664Z,96729.83
2019-02-22T00:42:08.120Z,96738.97
2019-02-22T00:43:11.575Z,96736.96
2019-02-22T00:44:15.002Z,96736.96
2019-02-22T00:45:18.442Z,96734.53
2019-02-22T00:46:21.942Z,96736.31
2019-02-22T00:47:25.387Z,96739.05
2019-02-22T00:48:28.829Z,96731.75
2019-02-22T00:49:32.260Z,96725.73
2019-02-22T00:50:35.689Z,96719.48
2019-02-22T00:51:39.199Z,96716.62
2019-02-22T00:52:42.658Z,96716.62
2019-02-22T00:53:46.108Z,96714.31
2019-02-22T00:54:49.605Z,96719.36
2019-02-22T00:55:53.053Z,96716.39
2019-02-22T00:56:56.515Z,96719.09
2019-02-22T00:57:59.961Z,96722.29
2019-02-22T00:59:03.398Z,96720.41
2019-02-22T01:00:09.181Z,96719.66
2019-02-22T01:01:12.610Z,96726.47
2019-02-22T01:02:16.050Z,96729.09
2019-02-22T01:03:19.573Z,96729.09
2019-02-22T01:04:23.089Z,96732.30
2019-02-22T01:05:26.516Z,96723.23
2019-02-22T01:06:29.954Z,96723.23
2019-02-22T01:07:33.403Z,96721.84
2019-02-22T01:08:36.848Z,96718.88
2019-02-22T01:09:40.365Z,96723.23
2019-02-22T01:10:43.818Z,96720.65
2019-02-22T01:11:47.265Z,96718.48
2019-02-22T01:12:50.681Z,96715.44
2019-02-22T01:13:54.231Z,96720.69
2019-02-22T01:14:57.674Z,96715.20
2019-02-22T01:16:01.103Z,96710.62
2019-02-22T01:17:04.527Z,96713.98
2019-02-22T01:18:08.034Z,96704.25
2019-02-22T01:19:11.515Z,96704.36
2019-02-22T01:20:15.022Z,96704.79
2019-02-22T01:21:18.489Z,96700.32
2019-02-22T01:22:21.912Z,96700.32
2019-02-22T01:23:25.351Z,96702.09
2019-02-22T01:24:28.876Z,96696.19
2019-02-22T01:25:32.373Z,96695.50
2019-02-22T01:26:35.819Z,96702.05
2019-02-22T01:27:39.250Z,96703.41
2019-02-22T01:28:42.669Z,96690.29
2019-02-22T01:29:46.190Z,96695.53
2019-02-22T01:30:49.644Z,96693.45
2019-02-22T01:31:53.075Z,96695.07
2019-02-22T01:32:56.516Z,96692.14
2019-02-22T01:34:00.013Z,96692.41
2019-02-22T01:35:03.461Z,96692.06
2019-02-22T01:36:06.904Z,96693.03
2019-02-22T01:37:10.405Z,96698.81
2019-02-22T01:38:13.850Z,96696.42
2019-02-22T01:39:17.274Z,96695.81
2019-02-22T01:40:20.722Z,96693.61
2019-02-22T01:41:24.155Z,96693.37
2019-02-22T01:42:27.591Z,96693.37
2019-02-22T01:43:33.381Z,96693.77
2019-02-22T01:44:36.256Z,96696.50
2019-02-22T01:45:39.702Z,96686.59
2019-02-22T01:46:43.128Z,96692.42
2019-02-22T01:47:46.630Z,96694.30
2019-02-22T01:48:50.083Z,96691.41
2019-02-22T01:49:53.545Z,96685.74
2019-02-22T01:50:56.999Z,96687.36
2019-02-22T01:52:00.546Z,96692.19
2019-02-22T01:53:03.974Z,96692.19
2019-02-22T01:54:07.410Z,96688.48
2019-02-22T01:55:10.910Z,96691.11
2019-02-22T01:56:14.504Z,96695.89
2019-02-22T01:57:17.930Z,96699.70
2019-02-22T01:58:21.435Z,96699.70
2019-02-22T01:59:24.868Z,96698.93
2019-02-22T02:00:28.378Z,96690.41
2019-02-22T02:01:31.909Z,96694.00
2019-02-22T02:02:35.339Z,96694.45
2019-02-22T02:03:38.766Z,96695.42
2019-02-22T02:04:42.212Z,96690.72
2019-02-22T02:05:45.715Z,96694.57
2019-02-22T02:06:49.232Z,96693.84
2019-02-22T02:07:52.676Z,96687.05
2019-02-22T02:08:56.112Z,96682.77
2019-02-22T02:09:59.533Z,96688.13
2019-02-22T02:11:02.959Z,96686.70
2019-02-22T02:12:06.417Z,96696.00
2019-02-22T02:13:09.883Z,96693.50
2019-02-22T02:14:13.313Z,96693.50
2019-02-22T02:15:16.761Z,96696.89
2019-02-22T02:16:20.190Z,96690.02
2019-02-22T02:17:23.648Z,96687.98
2019-02-22T02:18:27.098Z,96687.09
2019-02-22T02:19:30.530Z,96687.09
2019-02-22T02:20:33.962Z,96696.16
2019-02-22T02:21:37.482Z,96702.17
2019-02-22T02:22:40.913Z,96700.41
2019-02-22T02:23:44.430Z,96696.51
2019-02-22T02:24:47.851Z,96696.51
2019-02-22T02:25:51.351Z,96698.47
2019-02-22T02:26:54.790Z,96692.11
2019-02-22T02:27:58.235Z,96699.05
2019-02-22T02:29:01.750Z,96706.38
2019-02-22T02:30:07.617Z,96700.24
2019-02-22T02:31:11.031Z,96700.24
2019-02-22T02:32:14.473Z,96696.14
2019-02-22T02:33:17.987Z,96696.14
2019-02-22T02:34:21.483Z,96697.23
2019-02-22T02:35:24.984Z,96695.27
2019-02-22T02:36:28.434Z,96695.27
2019-02-22T02:37:31.869Z,96697.23
2019-02-22T02:38:35.301Z,96698.34
2019-02-22T02:39:38.773Z,96698.42
2019-02-22T02:40:42.191Z,96706.60
2019-02-22T02:41:45.621Z,96706.14
2019-02-22T02:42:49.053Z,96688.22
2019-02-22T02:43:52.511Z,96688.22
2019-02-22T02:44:55.944Z,96698.05
2019-02-22T02:45:59.377Z,96698.16
2019-02-22T02:47:02.806Z,96693.11
2019-02-22T02:48:06.248Z,96695.00
2019-02-22T02:49:09.704Z,96690.38
2019-02-22T02:50:16.187Z,96691.18
2019-02-22T02:51:19.696Z,96692.52
2019-02-22T02:52:23.166Z,96700.24
2019-02-22T02:53:26.604Z,96694.61
2019-02-22T02:54:30.057Z,96695.27
2019-02-22T02:55:34.950Z,96692.75
2019-02-22T02:56:38.453Z,96692.75
2019-02-22T02:57:41.894Z,96698.73
2019-02-22T02:58:45.327Z,96700.70
2019-02-22T02:59:48.774Z,96700.08
2019-02-22T03:00:52.214Z,96700.08
2019-02-22T03:01:55.718Z,96698.77
2019-02-22T03:02:59.287Z,96693.53
2019-02-22T03:04:02.718Z,96708.14
2019-02-22T03:05:06.311Z,96697.91
2019-02-22T03:06:11.402Z,96697.91
2019-02-22T03:07:16.463Z,96698.77
2019-02-22T03:08:20.467Z,96703.67
2019-02-22T03:09:23.906Z,96703.75
2019-02-22T03:10:27.398Z,96706.60
2019-02-22T03:11:30.860Z,96708.69
2019-02-22T03:12:34.270Z,96708.69
2019-02-22T03:13:37.703Z,96721.25
2019-02-22T03:14:41.139Z,96721.51
2019-02-22T03:15:44.656Z,96721.51
2019-02-22T03:16:48.047Z,96716.15
2019-02-22T03:17:51.487Z,96723.59
2019-02-22T03:18:54.945Z,96712.47
2019-02-22T03:19:58.393Z,96720.90
2019-02-22T03:21:01.836Z,96720.90
2019-02-22T03:22:05.342Z,96722.64
2019-02-22T03:23:08.779Z,96716.49
2019-02-22T03:24:12.223Z,96716.49
2019-02-22T03:25:15.656Z,96724.55
2019-02-22T03:26:19.115Z,96733.73
2019-02-22T03:27:22.635Z,96726.86
2019-02-22T03:28:26.065Z,96726.86
2019-02-22T03:29:29.507Z,96732.88
2019-02-22T03:30:33.027Z,96730.25
2019-02-22T03:31:36.560Z,96734.64
2019-02-22T03:32:40.010Z,96734.64
2019-02-22T03:33:43.451Z,96730.94
2019-02-22T03:34:46.959Z,96732.02
2019-02-22T03:35:50.388Z,96735.04
2019-02-22T03:36:53.869Z,96738.37
2019-02-22T03:37:57.309Z,96738.37
2019-02-22T03:39:00.742Z,96734.34
2019-02-22T03:40:05.910Z,96739.47
2019-02-22T03:41:09.349Z,96736.85
2019-02-22T03:42:12.814Z,96742.09
2019-02-22T03:43:16.248Z,96734.91
2019-02-22T03:44:19.688Z,96735.24
2019-02-22T03:45:23.126Z,96735.55
2019-02-22T03:46:26.563Z,96744.19
2019-02-22T03:47:30.093Z,96738.59
2019-02-22T03:48:33.533Z,96738.59
2019-02-22T03:49:37.066Z,96738.59
2019-02-22T03:50:40.505Z,96743.42
2019-02-22T03:51:43.944Z,96735.67
2019-02-22T03:52:51.529Z,96735.67
2019-02-22T03:53:57.393Z,96738.61
2019-02-22T03:55:00.502Z,96737.06
2019-02-22T03:56:04.078Z,96747.13
2019-02-22T03:57:07.642Z,96746.91
2019-02-22T03:58:11.184Z,96748.66
2019-02-22T03:59:14.750Z,96741.56
2019-02-22T04:00:18.259Z,96741.89
2019-02-22T04:01:21.819Z,96742.12
2019-02-22T04:02:25.405Z,96743.76
2019-02-22T04:03:28.918Z,96740.38
2019-02-22T04:04:32.445Z,96746.48
2019-02-22T04:05:35.879Z,96738.83
2019-02-22T04:06:39.310Z,96739.59
2019-02-22T04:07:42.739Z,96745.17
2019-02-22T04:08:46.492Z,96753.03
2019-02-22T04:09:49.921Z,96753.03
2019-02-22T04:10:53.363Z,96751.61
2019-02-22T04:11:56.786Z,96755.32
2019-02-22T04:13:00.234Z,96751.06
2019-02-22T04:14:03.692Z,96749.88
2019-02-22T04:15:09.683Z,96746.72
2019-02-22T04:16:13.186Z,96752.48
2019-02-22T04:17:16.617Z,96752.83
2019-02-22T04:18:20.136Z,96750.95
2019-02-22T04:19:23.625Z,96749.12
2019-02-22T04:20:27.152Z,96750.20
2019-02-22T04:21:30.600Z,96747.37
2019-02-22T04:22:34.095Z,96744.95
2019-02-22T04:23:37.595Z,96737.43
2019-02-22T04:24:41.067Z,96739.17
2019-02-22T04:25:44.642Z,96736.34
2019-02-22T04:26:48.079Z,96737.00
2019-02-22T04:27:51.513Z,96732.86
2019-02-22T04:28:54.952Z,96735.12
2019-02-22T04:29:58.410Z,96730.98
2019-02-22T04:31:01.839Z,96735.38
2019-02-22T04:32:05.340Z,96729.38
2019-02-22T04:33:08.906Z,96729.38
2019-02-22T04:34:12.375Z,96728.27
2019-02-22T04:35:15.785Z,96733.52
2019-02-22T04:36:19.230Z,96729.92
2019-02-22T04:37:22.661Z,96731.23
2019-02-22T04:38:26.105Z,96733.73
2019-02-22T04:39:29.536Z,96735.15
2019-02-22T04:40:33.066Z,96734.48
2019-02-22T04:41:36.519Z,96739.29
2019-02-22T04:42:39.961Z,96732.31
2019-02-22T04:43:43.387Z,96733.17
2019-02-22T04:44:46.828Z,96734.72
2019-02-22T04:45:50.277Z,96735.78
2019-02-22T04:46:53.719Z,96741.59
2019-02-22T04:47:57.281Z,96741.69
2019-02-22T04:49:00.655Z,96740.61
2019-02-22T04:50:04.462Z,96742.34
2019-02-22T04:51:07.979Z,96737.42
2019-02-22T04:52:11.508Z,96746.61
2019-02-22T04:53:14.941Z,96751.40
2019-02-22T04:54:18.387Z,96750.09
2019-02-22T04:55:21.849Z,96748.34
2019-02-22T04:56:25.338Z,96749.55
2019-02-22T04:57:28.846Z,96752.60
2019-02-22T04:58:32.278Z,96752.70
2019-02-22T04:59:35.733Z,96756.09
2019-02-22T05:00:39.182Z,96749.75
2019-02-22T05:01:42.606Z,96755.96
2019-02-22T05:02:46.129Z,96755.96
2019-02-22T05:03:49.573Z,96759.15
2019-02-22T05:04:53.081Z,96762.84
2019-02-22T05:05:56.515Z,96756.20
2019-02-22T05:06:59.983Z,96756.20
2019-02-22T05:08:03.418Z,96754.55
2019-02-22T05:09:07.000Z,96756.09
2019-02-22T05:10:10.430Z,96752.36
2019-02-22T05:11:13.873Z,96753.89
2019-02-22T05:12:17.312Z,96757.94
2019-02-22T05:13:20.746Z,96757.94
2019-02-22T05:14:24.187Z,96757.28
2019-02-22T05:15:27.631Z,96757.72
2019-02-22T05:16:31.067Z,96762.41
2019-02-22T05:17:35.719Z,96764.71
2019-02-22T05:18:39.318Z,96756.95
2019-02-22T05:19:42.762Z,96758.92
2019-02-22T05:20:46.261Z,96762.83
2019-02-22T05:21:49.719Z,96755.87
2019-02-22T05:23:03.363Z,96754.89
2019-02-22T05:23:58.325Z,96761.52
2019-02-22T05:25:01.766Z,96756.28
2019-02-22T05:26:05.353Z,96754.33
2019-02-22T05:27:08.774Z,96756.28
2019-02-22T05:28:12.224Z,96754.22
2019-02-22T05:29:15.677Z,96760.34
2019-02-22T05:30:19.181Z,96760.66
2019-02-22T05:31:22.606Z,96759.56
2019-02-22T05:32:26.122Z,96762.42
2019-02-22T05:33:29.561Z,96762.42
2019-02-22T05:34:33.011Z,96760.75
2019-02-22T05:35:36.450Z,96759.13
2019-02-22T05:36:39.889Z,96755.19
2019-02-22T05:37:43.394Z,96768.30
2019-02-22T05:38:46.843Z,96759.14
2019-02-22T05:39:50.322Z,96756.39
2019-02-22T05:40:53.737Z,96758.91
2019-02-22T05:41:57.182Z,96757.59
2019-02-22T05:43:00.623Z,96757.48
2019-02-22T05:44:04.071Z,96761.31
2019-02-22T05:45:07.939Z,96760.55
2019-02-22T05:46:11.431Z,96750.41
2019-02-22T05:47:14.875Z,96757.41
2019-02-22T05:48:18.300Z,96752.48
2019-02-22T05:49:22.561Z,96754.13
2019-02-22T05:50:26.065Z,96758.25
2019-02-22T05:51:29.573Z,96760.13
2019-02-22T05:52:33.104Z,96756.09
2019-02-22T05:53:36.551Z,96760.22
2019-02-22T05:54:40.045Z,96758.69
2019-02-22T05:55:44.426Z,96766.10
2019-02-22T05:56:47.963Z,96765.15
2019-02-22T05:57:51.387Z,96763.64
2019-02-22T05:58:54.818Z,96769.83
2019-02-22T05:59:58.292Z,96758.59
2019-02-22T06:01:01.743Z,96768.63
2019-02-22T06:02:05.363Z,96767.95
2019-02-22T06:03:08.895Z,96762.85
2019-02-22T06:04:12.352Z,96765.47
2019-02-22T06:05:15.845Z,96761.97
2019-02-22T06:06:19.384Z,96766.44
2019-02-22T06:07:22.923Z,96764.05
2019-02-22T06:08:26.506Z,96764.38
2019-02-22T06:09:29.951Z,96761.42
2019-02-22T06:10:33.491Z,96760.34
2019-02-22T06:11:36.928Z,96765.45
2019-02-22T06:12:40.516Z,96765.80
2019-02-22T06:13:43.978Z,96774.44
2019-02-22T06:14:47.414Z,96765.12
2019-02-22T06:15:50.858Z,96769.61
2019-02-22T06:16:54.298Z,96780.74
2019-02-22T06:17:57.727Z,96776.27
2019-02-22T06:19:01.235Z,96772.67
2019-02-22T06:20:07.382Z,96778.78
2019-02-22T06:21:10.896Z,96778.55
2019-02-22T06:22:14.358Z,96786.30
2019-02-22T06:23:17.781Z,96791.67
2019-02-22T06:24:21.229Z,96787.95
2019-02-22T06:25:24.664Z,96787.95
2019-02-22T06:26:30.391Z,96796.12
2019-02-22T06:27:33.385Z,96799.53
2019-02-22T06:28:36.889Z,96799.53
2019-02-22T06:29:40.335Z,96796.45
2019-02-22T06:30:43.833Z,96796.45
2019-02-22T06:31:47.381Z,96801.28
2019-02-22T06:32:50.852Z,96801.72
2019-02-22T06:33:54.296Z,96796.80
2019-02-22T06:34:57.737Z,96791.77
2019-02-22T06:36:01.208Z,96795.83
2019-02-22T06:37:04.787Z,96802.14
2019-02-22T06:38:08.254Z,96800.83
2019-02-22T06:39:11.764Z,96800.83
2019-02-22T06:40:15.196Z,96805.20
2019-02-22T06:41:18.632Z,96804.55
2019-02-22T06:42:22.171Z,96803.67
2019-02-22T06:43:25.624Z,96817.09
2019-02-22T06:44:29.068Z,96816.09
2019-02-22T06:45:32.499Z,96813.70
2019-02-22T06:46:35.930Z,96819.39
2019-02-22T06:47:39.387Z,96821.78
2019-02-22T06:48:42.851Z,96822.64
2019-02-22T06:49:46.290Z,96822.64
2019-02-22T06:50:49.733Z,96826.28
2019-02-22T06:51:53.158Z,96826.05
2019-02-22T06:52:56.615Z,96829.42
2019-02-22T06:54:00.079Z,96831.81
2019-02-22T06:55:04.059Z,96831.19
2019-02-22T06:56:07.625Z,96831.19
2019-02-22T06:57:11.058Z,96832.26
2019-02-22T06:58:14.606Z,96846.13
2019-02-22T06:59:18.051Z,96830.64
2019-02-22T07:00:21.535Z,96839.57
2019-02-22T07:01:24.947Z,96839.57
2019-02-22T07:02:28.380Z,96843.50
2019-02-22T07:03:31.835Z,96843.94
2019-02-22T07:04:35.272Z,96853.45
2019-02-22T07:05:38.709Z,96853.45
2019-02-22T07:06:42.195Z,96839.14
2019-02-22T07:07:45.689Z,96847.86
2019-02-22T07:08:49.157Z,96847.76
2019-02-22T07:09:52.668Z,96849.53
2019-02-22T07:10:57.874Z,96849.53
2019-02-22T07:12:05.719Z,96849.86
2019-02-22T07:13:09.149Z,96843.75
2019-02-22T07:14:12.608Z,96843.75
2019-02-22T07:15:16.045Z,96846.70
2019-02-22T07:16:19.560Z,96839.83
2019-02-22T07:17:23.003Z,96847.56
2019-02-22T07:18:26.439Z,96847.56
2019-02-22T07:19:29.894Z,96850.53
2019-02-22T07:20:33.347Z,96853.90
2019-02-22T07:21:51.657Z,96853.23
2019-02-22T07:22:42.008Z,96848.45
2019-02-22T07:23:45.434Z,96851.50
2019-02-22T07:24:48.893Z,96853.59
2019-02-22T07:25:52.322Z,96853.78
2019-02-22T07:26:55.771Z,96856.98
2019-02-22T07:27:59.246Z,96856.11
2019-02-22T07:29:02.648Z,96861.33
2019-02-22T07:30:09.138Z,96865.14
2019-02-22T07:31:12.593Z,96865.14
2019-02-22T07:32:16.037Z,96865.26
2019-02-22T07:33:19.538Z,96865.26
2019-02-22T07:34:23.054Z,96871.34
2019-02-22T07:35:26.529Z,96873.09
2019-02-22T07:36:30.039Z,96872.66
2019-02-22T07:37:33.501Z,96876.05
2019-02-22T07:38:36.918Z,96877.46
2019-02-22T07:39:40.346Z,96880.08
2019-02-22T07:40:43.807Z,96882.03
2019-02-22T07:41:47.323Z,96885.86
2019-02-22T07:42:50.769Z,96881.19
2019-02-22T07:43:54.211Z,96887.53
2019-02-22T07:44:57.641Z,96882.73
2019-02-22T07:46:01.100Z,96882.73
2019-02-22T07:47:04.618Z,96894.11
2019-02-22T07:48:08.067Z,96894.11
2019-02-22T07:49:11.497Z,96893.44
2019-02-22T07:50:15.063Z,96890.36
2019-02-22T07:51:18.453Z,96887.61
2019-02-22T07:52:21.887Z,96890.99
2019-02-22T07:53:25.317Z,96896.91
2019-02-22T07:54:28.751Z,96900.61
2019-02-22T07:55:32.192Z,96902.89
2019-02-22T07:56:35.702Z,96909.57
2019-02-22T07:57:40.121Z,96913.06
2019-02-22T07:58:43.766Z,96906.31
2019-02-22T07:59:47.222Z,96914.73
2019-02-22T08:00:50.705Z,96907.20
2019-02-22T08:01:54.300Z,96906.98
2019-02-22T08:02:57.731Z,96908.80
2019-02-22T08:04:01.173Z,96904.97
2019-02-22T08:05:05.153Z,96904.97
2019-02-22T08:06:08.600Z,96905.41
2019-02-22T08:07:12.155Z,96898.86
2019-02-22T08:08:15.591Z,96904.36
2019-02-22T08:09:19.027Z,96901.73
2019-02-22T08:10:22.526Z,96901.73
2019-02-22T08:11:25.960Z,96898.02
2019-02-22T08:12:29.411Z,96905.44
2019-02-22T08:13:32.883Z,96906.87
2019-02-22T08:14:36.365Z,96908.82
2019-02-22T08:15:39.879Z,96908.82
2019-02-22T08:16:43.392Z,96906.97
2019-02-22T08:17:47.060Z,96909.49
2019-02-22T08:19:01.199Z,96910.16
2019-02-22T08:19:55.606Z,96910.90
2019-02-22T08:20:59.044Z,96906.20
2019-02-22T08:22:03.526Z,96906.20
2019-02-22T08:23:07.151Z,96912.02
2019-02-22T08:24:10.593Z,96910.36
2019-02-22T08:25:14.107Z,96910.36
2019-02-22T08:26:17.538Z,96917.89
2019-02-22T08:27:20.976Z,96906.77
2019-02-22T08:28:24.432Z,96906.00
2019-02-22T08:29:27.864Z,96918.67
2019-02-22T08:30:31.373Z,96920.20
2019-02-22T08:31:34.813Z,96921.72
2019-02-22T08:32:38.338Z,96927.50
2019-02-22T08:33:41.784Z,96928.38
2019-02-22T08:34:45.978Z,96939.73
2019-02-22T08:35:49.532Z,96938.66
2019-02-22T08:36:52.963Z,96931.56
2019-02-22T08:37:56.471Z,96931.56
2019-02-22T08:38:59.925Z,96944.66
2019-02-22T08:40:03.709Z,96944.66
2019-02-22T08:41:07.169Z,96939.53
2019-02-22T08:42:10.589Z,96936.70
2019-02-22T08:43:14.167Z,96941.61
2019-02-22T08:44:17.624Z,96935.36
2019-02-22T08:45:21.139Z,96942.35
2019-02-22T08:46:24.566Z,96942.35
2019-02-22T08:47:28.002Z,96947.92
2019-02-22T08:48:31.440Z,96941.92
2019-02-22T08:49:34.900Z,96941.50
2019-02-22T08:50:38.613Z,96941.50
2019-02-22T08:51:42.046Z,96943.89
2019-02-22T08:52:45.602Z,96943.89
2019-02-22T08:53:48.984Z,96951.30
2019-02-22T08:54:52.515Z,96951.30
2019-02-22T08:55:55.950Z,96956.66
2019-02-22T08:56:59.390Z,96957.84
2019-02-22T08:58:02.888Z,96956.33
2019-02-22T08:59:06.340Z,96953.07
2019-02-22T09:00:12.284Z,96953.07
2019-02-22T09:01:20.016Z,96960.59
2019-02-22T09:02:23.445Z,96969.77
2019-02-22T09:03:26.888Z,96961.34
2019-02-22T09:04:30.308Z,96963.22
2019-02-22T09:05:33.835Z,96963.32
2019-02-22T09:06:37.325Z,96962.68
2019-02-22T09:07:40.767Z,96962.68
2019-02-22T09:08:44.348Z,96962.88
2019-02-22T09:09:48.068Z,96965.73
2019-02-22T09:11:00.131Z,96965.73
2019-02-22T09:11:57.763Z,96959.07
2019-02-22T09:13:01.267Z,96965.52
2019-02-22T09:14:04.692Z,96964.11
2019-02-22T09:15:09.765Z,96963.77
2019-02-22T09:16:13.253Z,96967.27
2019-02-22T09:17:16.740Z,96966.06
2019-02-22T09:18:20.198Z,96966.30
2019-02-22T09:19:23.685Z,96976.45
2019-02-22T09:20:27.127Z,96987.27
2019-02-22T09:21:30.595Z,96983.03
2019-02-22T09:22:34.043Z,96979.84
2019-02-22T09:23:37.490Z,96978.53
2019-02-22T09:24:40.934Z,96987.38
2019-02-22T09:25:44.526Z,96985.86
2019-02-22T09:26:48.155Z,96991.64
2019-02-22T09:27:51.606Z,96983.23
2019-02-22T09:28:55.633Z,96988.70
2019-02-22T09:29:59.336Z,96988.91
2019-02-22T09:31:02.901Z,96994.70
2019-02-22T09:32:06.509Z,96995.27
2019-02-22T09:33:09.970Z,96999.40
2019-02-22T09:34:13.404Z,96995.80
2019-02-22T09:35:16.841Z,97005.73
2019-02-22T09:36:20.276Z,97006.39
2019-02-22T09:37:23.806Z,97004.31
2019-02-22T09:38:27.244Z,97004.31
2019-02-22T09:39:30.679Z,96994.16
2019-02-22T09:40:34.171Z,96998.77
2019-02-22T09:41:37.606Z,96998.32
2019-02-22T09:42:41.064Z,96999.73
2019-02-22T09:43:54.641Z,97001.48
2019-02-22T09:44:49.718Z,97003.88
2019-02-22T09:45:53.218Z,97005.86
2019-02-22T09:46:56.655Z,97004.87
2019-02-22T09:48:00.164Z,97005.08
2019-02-22T09:49:03.789Z,97012.51
2019-02-22T09:50:10.152Z,97010.55
2019-02-22T09:51:13.589Z,97009.47
2019-02-22T09:52:17.034Z,97014.48
2019-02-22T09:53:20.489Z,97014.28
2019-02-22T09:54:23.933Z,97014.48
2019-02-22T09:55:27.367Z,97009.91
2019-02-22T09:56:30.885Z,97020.16
2019-02-22T09:57:34.315Z,97020.16
2019-02-22T09:58:37.758Z,97010.23
2019-02-22T09:59:41.314Z,97017.98
2019-02-22T10:00:44.952Z,97016.90
2019-02-22T10:01:48.428Z,97012.09
2019-02-22T10:02:51.864Z,97014.50
2019-02-22T10:03:55.573Z,97016.88
2019-02-22T10:04:59.318Z,97014.93
2019-02-22T10:06:03.086Z,97013.17
2019-02-22T10:07:06.774Z,97010.55
2019-02-22T10:08:10.324Z,97012.50
2019-02-22T10:09:14.241Z,97010.34
2019-02-22T10:10:17.781Z,97010.34
2019-02-22T10:11:21.233Z,97017.98
2019-02-22T10:12:24.674Z,97018.09
2019-02-22T10:13:28.157Z,97019.19
2019-02-22T10:14:31.750Z,97012.52
2019-02-22T10:15:35.214Z,97012.63
2019-02-22T10:16:38.821Z,97012.31
2019-02-22T10:17:42.311Z,97011.64
2019-02-22T10:18:45.848Z,97020.81
2019-02-22T10:19:49.299Z,97014.49
2019-02-22T10:20:53.186Z,97013.38
2019-02-22T10:21:57.614Z,97017.22
2019-02-22T10:23:01.336Z,97018.41
2019-02-22T10:24:04.875Z,97011.84
2019-02-22T10:25:08.765Z,97010.86
2019-02-22T10:26:12.269Z,97007.92
2019-02-22T10:27:15.790Z,97017.11
2019-02-22T10:28:19.295Z,97018.52
2019-02-22T10:29:22.798Z,97013.50
2019-02-22T10:30:26.402Z,97018.41
2019-02-22T10:31:29.992Z,97017.20
2019-02-22T10:32:33.636Z,97016.23
2019-02-22T10:33:37.136Z,97012.17
2019-02-22T10:34:40.585Z,97017.09
2019-02-22T10:35:44.039Z,97014.80
2019-02-22T10:36:47.566Z,97016.22
2019-02-22T10:37:51.021Z,97018.53
2019-02-22T10:38:54.652Z,97016.89
2019-02-22T10:39:58.094Z,97026.06
2019-02-22T10:41:01.838Z,97027.70
2019-02-22T10:42:05.354Z,97034.38
2019-02-22T10:43:08.979Z,97036.80
2019-02-22T10:44:17.678Z,97039.96
2019-02-22T10:45:17.776Z,97048.71
2019-02-22T10:46:22.342Z,97060.19
2019-02-22T10:47:26.123Z,97060.19
2019-02-22T10:48:29.656Z,97066.22
2019-02-22T10:49:33.175Z,97066.52
2019-02-22T10:50:36.637Z,97066.19
2019-02-22T10:51:40.262Z,97065.75
2019-02-22T10:52:43.913Z,97061.83
2019-02-22T10:53:47.479Z,97058.64
2019-02-22T10:54:51.026Z,97067.19
2019-02-22T10:55:54.494Z,97058.87
2019-02-22T10:56:57.924Z,97060.50
2019-02-22T10:58:01.587Z,97067.63
2019-02-22T10:59:05.111Z,97061.50
2019-02-22T11:00:15.224Z,97062.14
2019-02-22T11:01:18.686Z,97065.43
2019-02-22T11:02:22.177Z,97070.47
2019-02-22T11:03:25.675Z,97058.44
2019-02-22T11:04:29.180Z,97062.59
2019-02-22T11:05:32.901Z,97060.39
2019-02-22T11:06:36.377Z,97063.02
2019-02-22T11:07:40.046Z,97058.00
2019-02-22T11:08:43.550Z,97062.59
2019-02-22T11:09:47.144Z,97061.26
2019-02-22T11:10:50.811Z,97061.68
2019-02-22T11:11:54.375Z,97065.41
2019-02-22T11:12:57.838Z,97067.27
2019-02-22T11:14:01.646Z,97069.78
2019-02-22T11:15:08.170Z,97065.62
2019-02-22T11:16:11.777Z,97060.48
2019-02-22T11:17:15.434Z,97063.64
2019-02-22T11:18:18.957Z,97061.78
2019-02-22T11:19:22.588Z,97061.57
2019-02-22T11:20:26.051Z,97057.75
2019-02-22T11:21:29.637Z,97063.66
2019-02-22T11:22:33.079Z,97058.95
2019-02-22T11:23:36.543Z,97056.33
2019-02-22T11:24:40.036Z,97055.25
2019-02-22T11:25:43.665Z,97060.25
2019-02-22T11:26:47.257Z,97064.88
2019-02-22T11:27:50.694Z,97065.75
2019-02-22T11:28:54.235Z,97068.45
2019-02-22T11:29:57.752Z,97073.59
2019-02-22T11:31:01.416Z,97070.09
2019-02-22T11:32:04.998Z,97075.58
2019-02-22T11:33:08.525Z,97073.81
2019-02-22T11:34:12.274Z,97074.34
2019-02-22T11:35:15.882Z,97076.96
2019-02-22T11:36:19.540Z,97071.39
2019-02-22T11:37:23.217Z,97074.67
2019-02-22T11:38:27.040Z,97074.16
2019-02-22T11:39:30.710Z,97072.17
2019-02-22T11:40:34.206Z,97073.49
2019-02-22T11:41:37.651Z,97072.83
2019-02-22T11:42:41.134Z,97073.58
2019-02-22T11:43:44.643Z,97070.95
2019-02-22T11:44:48.302Z,97074.77
2019-02-22T11:45:53.352Z,97070.97
2019-02-22T11:46:57.173Z,97072.48
2019-02-22T11:48:08.799Z,97070.39
2019-02-22T11:49:06.517Z,97071.17
2019-02-22T11:50:11.286Z,97070.61
2019-02-22T11:51:15.301Z,97076.29
2019-02-22T11:52:19.108Z,97074.33
2019-02-22T11:53:22.712Z,97075.19
2019-02-22T11:54:26.382Z,97075.73
2019-02-22T11:55:30.007Z,97076.47
2019-02-22T11:56:33.549Z,97078.76
2019-02-22T11:57:37.212Z,97076.70
2019-02-22T11:58:41.940Z,97069.93
2019-02-22T11:59:45.349Z,97076.70
2019-02-22T12:00:49.077Z,97070.59
2019-02-22T12:01:53.039Z,97076.81
2019-02-22T12:02:57.122Z,97076.28
2019-02-22T12:04:00.631Z,97077.38
2019-02-22T12:05:04.680Z,97079.13
2019-02-22T12:06:08.374Z,97076.41
2019-02-22T12:07:11.847Z,97076.06
2019-02-22T12:08:15.279Z,97073.87
2019-02-22T12:09:18.739Z,97067.07
2019-02-22T12:10:22.211Z,97073.19
2019-02-22T12:11:25.760Z,97075.70
2019-02-22T12:12:29.411Z,97072.51
2019-02-22T12:13:32.876Z,97075.70
2019-02-22T12:14:36.561Z,97081.05
2019-02-22T12:15:40.175Z,97080.63
2019-02-22T12:16:43.613Z,97078.73
2019-02-22T12:17:47.149Z,97081.02
2019-02-22T12:18:50.613Z,97081.14
2019-02-22T12:19:54.208Z,97077.28
2019-02-22T12:20:57.871Z,97082.87
2019-02-22T12:22:01.430Z,97081.22
2019-02-22T12:23:05.100Z,97082.54
2019-02-22T12:24:08.536Z,97078.51
2019-02-22T12:25:13.126Z,97073.25
2019-02-22T12:26:16.652Z,97080.59
2019-02-22T12:27:20.080Z,97080.45